Ersov, Russia
Current Conditions -  °F | °C
As of 4:30 PM on Wednesday 22 Oct 2014 (Local Time) from UWSS Reporting Station
Overcast Overcast  
Wind Chill: 21°   Ceiling: 2400
Heat Index: 32°   Visibility: 6mi
Dew Point: 21°   Wind: 16mph
Humidity: 64%   Direction: 310°NW
Pressure: 29.74"   Gusts: 25mph
Location:  51.37°N, 48.3°E
Report Text: UWSS 221330Z 31007G11MPS 9999 OVC024 00/M06 Q1007 300///60NOSIG RMK QFE742
Loading
Personal Weather Stations






























Interactive Weather Map
Tropical Storm Tracking
New forecast layout! Learn more

10-Day Weather Forecast

Advertisements
Track Severe Weather on mobile